Time;durP1;ratioP1;P1;durP2;ratioP2;P2;SDS_P1;SDS_P2;PMS_P1;PMS_P2;Temp;Humidity;BMP_temperature;BMP_pressure;BME280_temperature;BME280_humidity;BME280_pressure;Samples;Min_cycle;Max_cycle;Signal;HPM_P1;HPM_P2
2022/07/12 00:01:08;;;;;;;1.52;1.23;;;;;;;24.22;47.81;102528.06;4724095;30;20053;-84
2022/07/12 00:03:34;;;;;;;2.42;1.30;;;;;;;24.19;48.06;102534.56;4723397;30;20052;-84
2022/07/12 00:06:01;;;;;;;1.58;1.40;;;;;;;24.15;47.96;102521.78;4724403;30;20028;-84
2022/07/12 00:08:27;;;;;;;1.30;1.20;;;;;;;24.15;47.95;102522.59;4727599;30;20040;-85
2022/07/12 00:10:52;;;;;;;1.50;1.35;;;;;;;24.07;48.13;102520.78;4722791;30;20812;-83
2022/07/12 00:13:18;;;;;;;1.98;1.50;;;;;;;24.13;47.95;102529.09;4723896;30;20043;-84
2022/07/12 00:15:44;;;;;;;1.95;1.48;;;;;;;24.16;48.04;102542.06;4725692;30;20056;-84
2022/07/12 00:18:10;;;;;;;2.30;1.40;;;;;;;24.16;47.77;102534.91;4724396;30;20055;-83
2022/07/12 00:20:36;;;;;;;1.52;1.25;;;;;;;24.17;47.99;102531.25;4726213;30;20148;-84
2022/07/12 00:23:02;;;;;;;1.42;1.30;;;;;;;24.19;47.82;102520.44;4727741;30;20040;-84
2022/07/12 00:25:27;;;;;;;1.40;1.30;;;;;;;24.11;48.09;102515.97;4709883;30;20052;-84
2022/07/12 00:27:53;;;;;;;2.03;1.90;;;;;;;24.16;47.99;102510.13;4725257;30;20051;-84
2022/07/12 00:30:18;;;;;;;1.65;1.50;;;;;;;24.11;47.96;102507.97;4728125;30;20056;-84
2022/07/12 00:32:44;;;;;;;1.00;1.00;;;;;;;24.20;47.84;102512.28;4721682;30;20056;-84
2022/07/12 00:35:10;;;;;;;2.20;1.63;;;;;;;24.15;47.73;102519.94;4723585;30;20155;-83
2022/07/12 00:37:36;;;;;;;1.73;1.25;;;;;;;24.14;47.95;102518.28;4725270;30;20531;-83
2022/07/12 00:40:05;;;;;;;1.88;1.30;;;;;;;24.02;48.33;102515.13;4728796;30;20049;-83
2022/07/12 00:42:30;;;;;;;1.50;1.40;;;;;;;24.09;47.89;102508.16;4726271;30;20040;-83
2022/07/12 00:44:55;;;;;;;1.58;1.45;;;;;;;24.11;48.02;102510.63;4708788;30;20424;-83
2022/07/12 00:47:45;;;;;;;1.45;1.35;;;;;;;24.17;47.83;102507.28;4707631;30;20044;-84
2022/07/12 00:50:16;;;;;;;1.10;1.10;;;;;;;24.17;48.01;102503.81;4727429;30;20091;-83
2022/07/12 00:52:45;;;;;;;1.50;1.40;;;;;;;24.10;47.95;102496.50;4726661;30;20456;-83
2022/07/12 00:55:12;;;;;;;1.45;1.33;;;;;;;24.16;47.77;102499.47;4723468;30;20087;-82
2022/07/12 00:57:39;;;;;;;1.38;1.27;;;;;;;24.09;47.90;102491.34;4720735;30;20045;-84
2022/07/12 01:00:08;;;;;;;1.40;1.05;;;;;;;24.08;47.99;102492.34;4723919;30;20048;-84
2022/07/12 01:02:35;;;;;;;1.50;1.40;;;;;;;24.19;47.91;102504.47;4724006;30;20045;-83
2022/07/12 01:05:02;;;;;;;1.00;1.00;;;;;;;24.05;48.00;102503.31;4726593;30;20059;-83
2022/07/12 01:07:28;;;;;;;1.30;1.20;;;;;;;24.14;47.99;102515.63;4723918;30;20052;-83
2022/07/12 01:09:54;;;;;;;1.30;1.20;;;;;;;24.07;48.02;102515.47;4726154;30;20048;-84
2022/07/12 01:12:20;;;;;;;1.45;1.33;;;;;;;24.02;47.96;102515.13;4726357;30;20037;-83
2022/07/12 01:14:47;;;;;;;2.00;1.50;;;;;;;24.03;48.06;102510.63;4737578;30;20792;-83
2022/07/12 01:17:13;;;;;;;1.50;1.40;;;;;;;24.02;48.01;102512.44;4723267;30;20124;-83
2022/07/12 01:19:39;;;;;;;1.20;1.10;;;;;;;24.10;47.84;102515.13;4727805;30;20055;-83
2022/07/12 01:22:09;;;;;;;1.60;1.48;;;;;;;24.01;48.12;102520.59;4726946;30;20140;-83
2022/07/12 01:24:35;;;;;;;1.42;1.33;;;;;;;24.02;48.15;102519.59;4726799;30;20476;-82
2022/07/12 01:27:03;;;;;;;1.45;1.35;;;;;;;24.06;47.90;102529.78;4724105;30;20091;-83
2022/07/12 01:29:30;;;;;;;1.40;1.30;;;;;;;24.03;47.95;102521.25;4723954;30;20044;-83
2022/07/12 01:32:24;;;;;;;1.63;1.52;;;;;;;24.01;48.00;102523.25;4710121;30;20025;-83
2022/07/12 01:34:42;;;;;;;1.70;1.40;;;;;;;24.03;48.19;102524.75;4722811;30;20052;-83
2022/07/12 01:37:09;;;;;;;1.38;1.27;;;;;;;24.04;47.98;102526.41;4724875;30;20048;-83
2022/07/12 01:39:35;;;;;;;1.35;1.25;;;;;;;23.99;48.17;102531.41;4725243;30;20052;-83
2022/07/12 01:42:01;;;;;;;2.65;1.45;;;;;;;23.99;47.84;102520.78;4724408;30;20040;-82
2022/07/12 01:44:26;;;;;;;1.23;1.15;;;;;;;24.14;47.70;102533.41;4707067;30;20083;-84
2022/07/12 01:46:52;;;;;;;2.15;1.30;;;;;;;24.08;47.90;102535.75;4721551;30;20068;-82
2022/07/12 01:49:17;;;;;;;1.92;1.30;;;;;;;24.00;47.87;102534.91;4718115;30;20667;-82
2022/07/12 01:51:43;;;;;;;1.52;1.35;;;;;;;24.03;48.00;102547.88;4725295;30;20049;-83
2022/07/12 01:54:08;;;;;;;1.50;1.40;;;;;;;23.98;48.04;102542.22;4724224;30;20408;-83
2022/07/12 01:56:35;;;;;;;1.20;1.10;;;;;;;24.01;47.89;102539.22;4722312;30;20098;-83
2022/07/12 01:59:01;;;;;;;1.33;1.23;;;;;;;24.05;48.04;102548.53;4711102;30;20045;-83
2022/07/12 02:01:27;;;;;;;1.60;1.50;;;;;;;24.04;47.93;102536.22;4723213;30;20101;-83
2022/07/12 02:03:54;;;;;;;1.45;1.35;;;;;;;23.91;48.09;102544.72;4723235;30;20048;-83
2022/07/12 02:06:20;;;;;;;1.38;1.27;;;;;;;24.00;48.01;102541.06;4723068;30;20044;-84
2022/07/12 02:08:45;;;;;;;2.03;1.27;;;;;;;23.98;48.06;102544.88;4721527;30;20072;-84
2022/07/12 02:11:11;;;;;;;1.30;1.20;;;;;;;24.00;48.03;102546.38;4707008;30;20102;-83
2022/07/12 02:13:37;;;;;;;1.50;1.40;;;;;;;23.83;48.04;102523.44;4722955;30;20032;-83
2022/07/12 02:16:04;;;;;;;2.05;1.60;;;;;;;23.95;48.25;102526.59;4724711;30;20605;-83
2022/07/12 02:18:33;;;;;;;1.58;1.40;;;;;;;23.91;48.17;102530.59;4722032;30;20059;-83
2022/07/12 02:20:58;;;;;;;1.40;1.30;;;;;;;23.91;48.03;102520.78;4722701;30;20045;-84
2022/07/12 02:23:24;;;;;;;1.60;1.50;;;;;;;23.94;47.99;102524.94;4709332;30;20044;-83
2022/07/12 02:25:49;;;;;;;1.90;1.38;;;;;;;23.90;48.21;102521.78;4695558;30;20036;-83
2022/07/12 02:28:15;;;;;;;1.48;1.38;;;;;;;23.90;48.10;102515.63;4723487;30;20056;-83
2022/07/12 02:30:40;;;;;;;1.45;1.35;;;;;;;23.93;48.15;102520.63;4720383;30;20052;-83
2022/07/12 02:33:06;;;;;;;1.70;1.23;;;;;;;23.91;48.11;102518.13;4723242;30;20106;-84
2022/07/12 02:35:32;;;;;;;1.65;1.40;;;;;;;23.92;47.85;102516.31;4721620;30;20048;-84
2022/07/12 02:37:57;;;;;;;1.38;1.27;;;;;;;23.91;47.93;102526.13;4718922;30;20048;-83
2022/07/12 02:43:07;;;;;;;1.23;1.13;;;;;;;23.95;48.18;102524.78;4720837;30;20445;-83
2022/07/12 02:45:32;;;;;;;1.65;1.50;;;;;;;23.89;48.38;102529.94;4706995;30;20100;-84
2022/07/12 02:47:58;;;;;;;1.23;1.13;;;;;;;23.95;48.00;102523.94;4721064;30;20049;-83
2022/07/12 02:50:23;;;;;;;1.30;1.20;;;;;;;23.93;47.98;102523.28;4735520;30;20060;-83
2022/07/12 02:52:49;;;;;;;1.98;1.23;;;;;;;23.92;48.20;102514.47;4724213;30;20145;-83
2022/07/12 02:55:14;;;;;;;1.25;1.15;;;;;;;23.95;48.13;102521.28;4735889;30;20066;-83
2022/07/12 02:57:40;;;;;;;1.42;1.33;;;;;;;23.97;48.04;102524.59;4718504;30;20049;-82
2022/07/12 03:00:07;;;;;;;1.45;1.35;;;;;;;23.93;47.92;102517.97;4708565;30;20036;-83
2022/07/12 03:02:32;;;;;;;1.85;1.60;;;;;;;23.95;47.75;102513.31;4721102;30;20059;-82
2022/07/12 03:04:58;;;;;;;1.30;1.20;;;;;;;23.89;48.11;102517.47;4723498;30;20765;-83
2022/07/12 03:07:23;;;;;;;1.52;1.42;;;;;;;23.94;48.16;102522.28;4704886;30;20055;-82
2022/07/12 03:09:49;;;;;;;1.30;1.20;;;;;;;23.86;48.25;102511.63;4722805;30;20056;-83
2022/07/12 03:12:14;;;;;;;1.77;1.48;;;;;;;23.90;48.10;102510.31;4718476;30;20060;-83
2022/07/12 03:14:40;;;;;;;1.65;1.10;;;;;;;23.84;48.38;102513.63;4707175;30;20401;-83
2022/07/12 03:17:05;;;;;;;1.50;1.40;;;;;;;23.86;48.17;102512.44;4720356;30;20118;-83
2022/07/12 03:19:31;;;;;;;1.50;1.40;;;;;;;23.87;48.22;102521.25;4723187;30;20071;-83
2022/07/12 03:21:56;;;;;;;1.33;1.23;;;;;;;23.89;48.12;102513.97;4719259;30;20063;-83
2022/07/12 03:24:22;;;;;;;1.50;1.27;;;;;;;23.80;48.16;102505.97;4725907;30;20586;-83
2022/07/12 03:26:48;;;;;;;1.40;1.30;;;;;;;23.86;47.96;102515.13;4707236;30;20045;-83
2022/07/12 03:29:15;;;;;;;1.40;1.30;;;;;;;23.84;47.94;102522.44;4720045;30;20060;-84
2022/07/12 03:31:40;;;;;;;1.90;1.40;;;;;;;23.87;48.16;102522.09;4716900;30;20102;-82
2022/07/12 03:34:06;;;;;;;1.90;1.30;;;;;;;23.90;48.04;102519.13;4722540;30;20616;-83
2022/07/12 03:36:31;;;;;;;2.15;1.35;;;;;;;23.90;48.09;102510.31;4721647;30;20155;-82
2022/07/12 03:38:57;;;;;;;1.65;1.55;;;;;;;23.84;48.08;102511.78;4707466;30;20462;-83
2022/07/12 03:41:22;;;;;;;1.40;1.30;;;;;;;23.88;48.18;102510.50;4724650;30;20055;-82
2022/07/12 03:43:48;;;;;;;1.33;1.23;;;;;;;23.87;48.12;102508.78;4720977;30;20053;-83
2022/07/12 03:46:13;;;;;;;1.42;1.33;;;;;;;23.76;48.33;102504.66;4703626;30;20041;-83
2022/07/12 03:48:39;;;;;;;1.30;1.13;;;;;;;23.86;48.11;102514.28;4720751;30;20063;-83
2022/07/12 03:51:04;;;;;;;1.50;1.40;;;;;;;23.78;48.22;102513.28;4717159;30;20053;-83
2022/07/12 03:53:30;;;;;;;2.15;1.20;;;;;;;23.83;48.02;102514.63;4723040;30;20036;-83
2022/07/12 03:55:55;;;;;;;2.05;1.20;;;;;;;23.90;47.95;102519.13;4708662;30;20056;-82
2022/07/12 03:58:21;;;;;;;2.30;1.60;;;;;;;23.83;47.98;102518.09;4715958;30;20095;-84
2022/07/12 04:00:46;;;;;;;1.40;1.25;;;;;;;23.89;47.94;102520.13;4719089;30;20049;-82
2022/07/12 04:03:12;;;;;;;1.50;1.40;;;;;;;23.90;47.83;102519.13;4712996;30;20509;-82
2022/07/12 04:05:38;;;;;;;1.52;1.42;;;;;;;23.83;48.07;102517.28;4727684;30;20036;-83
2022/07/12 04:08:04;;;;;;;1.42;1.33;;;;;;;23.88;47.79;102513.16;4727024;30;20045;-83
2022/07/12 04:10:29;;;;;;;1.80;1.58;;;;;;;23.80;47.85;102513.97;4725954;30;20083;-82
2022/07/12 04:12:55;;;;;;;1.23;1.13;;;;;;;23.80;48.04;102516.63;4720816;30;20122;-83
2022/07/12 04:15:20;;;;;;;1.83;1.30;;;;;;;23.81;48.17;102523.59;4722581;30;20061;-83
2022/07/12 04:17:46;;;;;;;1.30;1.20;;;;;;;23.83;48.28;102523.44;4722146;30;20033;-83
2022/07/12 04:20:12;;;;;;;1.20;1.10;;;;;;;23.85;48.01;102526.75;4723100;30;20056;-83
2022/07/12 04:22:38;;;;;;;1.60;1.33;;;;;;;23.76;47.92;102515.28;4725381;30;20072;-83
2022/07/12 04:25:05;;;;;;;1.63;1.35;;;;;;;23.83;47.88;102514.63;4724666;30;20466;-83
2022/07/12 04:27:31;;;;;;;1.23;1.20;;;;;;;23.79;48.17;102508.81;4725791;30;20671;-83
2022/07/12 04:29:57;;;;;;;1.27;1.17;;;;;;;23.75;47.88;102497.66;4724369;30;20041;-83
2022/07/12 04:32:22;;;;;;;1.42;1.33;;;;;;;23.68;47.94;102499.31;4722045;30;20052;-83
2022/07/12 04:34:48;;;;;;;1.50;1.40;;;;;;;23.78;48.13;102520.44;4722770;30;20048;-83
2022/07/12 04:37:13;;;;;;;1.30;1.20;;;;;;;23.80;48.01;102534.41;4723884;30;20110;-83
2022/07/12 04:39:39;;;;;;;1.25;1.20;;;;;;;23.84;47.97;102529.59;4722816;30;20049;-82
2022/07/12 04:42:04;;;;;;;1.50;1.40;;;;;;;23.85;47.97;102532.06;4723893;30;20021;-82
2022/07/12 04:44:30;;;;;;;1.60;1.50;;;;;;;23.76;48.02;102523.28;4708936;30;20052;-82
2022/07/12 04:46:55;;;;;;;1.60;1.50;;;;;;;23.82;48.06;102529.75;4725581;30;20040;-82
2022/07/12 04:49:21;;;;;;;1.55;1.40;;;;;;;23.80;48.14;102543.22;4723162;30;20169;-82
2022/07/12 04:51:46;;;;;;;1.17;1.17;;;;;;;23.94;47.84;102538.25;4714450;30;20076;-84
2022/07/12 04:54:12;;;;;;;1.30;1.20;;;;;;;23.84;48.16;102529.59;4728134;30;20056;-83
2022/07/12 04:56:37;;;;;;;2.20;1.42;;;;;;;23.78;48.01;102534.56;4724342;30;20470;-83
2022/07/12 04:59:03;;;;;;;1.50;1.40;;;;;;;23.71;48.21;102536.25;4721410;30;20044;-83
2022/07/12 05:01:29;;;;;;;1.60;1.50;;;;;;;23.77;48.03;102518.78;4723527;30;20048;-84
2022/07/12 05:03:55;;;;;;;1.70;1.35;;;;;;;23.84;48.00;102522.44;4721545;30;20052;-83
2022/07/12 05:06:22;;;;;;;1.70;1.60;;;;;;;23.86;47.98;102524.94;4723702;30;20808;-84
2022/07/12 05:08:48;;;;;;;1.40;1.30;;;;;;;23.83;48.28;102522.59;4724563;30;20063;-82
2022/07/12 05:11:14;;;;;;;1.58;1.48;;;;;;;23.78;48.01;102509.81;4725098;30;20049;-83
2022/07/12 05:13:39;;;;;;;1.50;1.40;;;;;;;23.80;48.21;102521.94;4721070;30;20056;-83
2022/07/12 05:16:07;;;;;;;1.50;1.40;;;;;;;23.77;48.15;102530.25;4723291;30;20036;-83
2022/07/12 05:18:33;;;;;;;1.60;1.50;;;;;;;23.83;48.14;102542.06;4720555;30;20502;-84
2022/07/12 05:20:59;;;;;;;1.15;1.10;;;;;;;23.79;48.01;102546.88;4725113;30;20044;-83
2022/07/12 05:23:24;;;;;;;1.48;1.38;;;;;;;23.78;48.11;102555.03;4725246;30;20041;-82
2022/07/12 05:25:50;;;;;;;1.40;1.30;;;;;;;23.84;48.08;102556.19;4726360;30;20044;-83
2022/07/12 05:28:15;;;;;;;1.30;1.20;;;;;;;23.74;48.01;102543.06;4714554;30;20087;-83
2022/07/12 05:30:43;;;;;;;1.40;1.30;;;;;;;23.71;48.09;102554.03;4722110;30;21641;-82
2022/07/12 05:33:08;;;;;;;1.42;1.33;;;;;;;23.72;47.98;102537.06;4720975;30;20040;-82
2022/07/12 05:35:34;;;;;;;1.60;1.50;;;;;;;23.79;48.22;102549.53;4723725;30;20189;-83
2022/07/12 05:37:59;;;;;;;1.50;1.40;;;;;;;23.83;48.07;102555.34;4722689;30;20136;-83
2022/07/12 05:40:25;;;;;;;1.35;1.25;;;;;;;23.80;48.14;102556.53;4723997;30;20041;-83
2022/07/12 05:42:51;;;;;;;1.73;1.50;;;;;;;23.72;48.13;102550.38;4720251;30;20040;-83
2022/07/12 05:45:16;;;;;;;1.50;1.40;;;;;;;23.70;48.26;102539.06;4723115;30;21492;-83
2022/07/12 05:47:42;;;;;;;1.40;1.30;;;;;;;23.76;48.22;102557.03;4723295;30;20080;-83
2022/07/12 05:50:08;;;;;;;1.30;1.20;;;;;;;23.85;48.04;102552.53;4722874;30;20040;-83
2022/07/12 05:55:19;;;;;;;1.08;1.08;;;;;;;23.89;47.93;102553.88;4738066;30;20068;-83
2022/07/12 05:57:45;;;;;;;1.50;1.40;;;;;;;23.81;48.17;102544.06;4724472;30;20056;-82
2022/07/12 06:00:11;;;;;;;1.30;1.20;;;;;;;23.81;48.18;102557.34;4727500;30;20048;-82
2022/07/12 06:02:37;;;;;;;1.33;1.23;;;;;;;23.86;48.10;102552.34;4727343;30;20049;-82
2022/07/12 06:05:02;;;;;;;1.70;1.60;;;;;;;23.86;47.93;102554.19;4725594;30;20041;-83
2022/07/12 06:07:28;;;;;;;1.00;1.00;;;;;;;23.87;48.19;102558.50;4726926;30;20420;-82
2022/07/12 06:09:53;;;;;;;1.55;1.40;;;;;;;23.96;47.51;102561.03;4722170;30;20162;-82
2022/07/12 06:12:19;;;;;;;1.20;1.17;;;;;;;23.88;48.14;102562.84;4706476;30;20055;-83
2022/07/12 06:14:44;;;;;;;1.40;1.30;;;;;;;23.89;48.02;102562.69;4724505;30;20060;-82
2022/07/12 06:17:10;;;;;;;1.48;1.38;;;;;;;23.91;47.96;102571.34;4734061;30;20052;-83
2022/07/12 06:19:35;;;;;;;1.52;1.42;;;;;;;23.85;48.05;102566.66;4722369;30;20040;-83
2022/07/12 06:22:01;;;;;;;1.30;1.13;;;;;;;23.91;47.90;102562.53;4737417;30;20424;-83
2022/07/12 06:24:26;;;;;;;1.52;1.42;;;;;;;23.81;48.07;102554.69;4727127;30;20052;-84
2022/07/12 06:26:52;;;;;;;1.55;1.45;;;;;;;23.90;47.99;102556.38;4710580;30;20053;-84
2022/07/12 06:29:17;;;;;;;1.10;1.10;;;;;;;23.84;48.04;102556.19;4725968;30;20121;-84
2022/07/12 06:31:43;;;;;;;1.65;1.55;;;;;;;23.85;47.97;102556.03;4728243;30;20052;-83
2022/07/12 06:34:09;;;;;;;1.08;1.08;;;;;;;23.82;47.98;102567.00;4740007;30;20044;-84
2022/07/12 06:36:34;;;;;;;1.90;1.30;;;;;;;23.85;48.12;102558.69;4723872;30;20136;-83
2022/07/12 06:38:59;;;;;;;1.30;1.20;;;;;;;23.93;48.00;102558.69;4731304;30;20150;-85
2022/07/12 06:41:25;;;;;;;0.98;0.95;;;;;;;23.98;47.95;102566.19;4722133;30;20424;-85
2022/07/12 06:43:51;;;;;;;1.40;1.30;;;;;;;23.93;48.03;102563.19;4725358;30;20052;-84
2022/07/12 06:46:16;;;;;;;1.60;1.50;;;;;;;23.95;48.00;102561.19;4725807;30;20036;-84
2022/07/12 06:48:41;;;;;;;1.92;1.35;;;;;;;23.95;48.29;102563.84;4721303;30;20056;-83
2022/07/12 06:51:07;;;;;;;1.40;1.30;;;;;;;23.95;47.80;102561.19;4727259;30;20048;-84
2022/07/12 06:53:32;;;;;;;1.60;1.50;;;;;;;23.94;47.95;102568.34;4725504;30;20060;-85
2022/07/12 06:55:58;;;;;;;1.13;1.10;;;;;;;23.88;47.98;102550.41;4710574;30;20138;-85
2022/07/12 06:58:23;;;;;;;1.80;1.40;;;;;;;23.94;47.99;102568.34;4724621;30;20056;-85
2022/07/12 07:00:49;;;;;;;1.35;1.25;;;;;;;23.94;48.04;102564.84;4721538;30;20025;-85
2022/07/12 07:03:14;;;;;;;1.40;1.30;;;;;;;24.02;47.93;102564.84;4724838;30;20055;-85
2022/07/12 07:05:40;;;;;;;1.50;1.33;;;;;;;24.01;47.95;102571.16;4727917;30;20052;-85
2022/07/12 07:08:06;;;;;;;1.65;1.55;;;;;;;23.98;48.12;102576.81;4724261;30;20600;-85
2022/07/12 07:10:31;;;;;;;1.38;1.27;;;;;;;24.05;47.86;102573.31;4722430;30;20029;-85
2022/07/12 07:12:56;;;;;;;1.40;1.30;;;;;;;24.06;47.72;102569.69;4725921;30;20056;-84
2022/07/12 07:15:22;;;;;;;1.48;1.38;;;;;;;24.06;47.80;102568.88;4711583;30;20099;-82
2022/07/12 07:17:47;;;;;;;1.30;1.20;;;;;;;24.11;47.66;102574.50;4723912;30;20411;-86
2022/07/12 07:20:13;;;;;;;1.45;1.35;;;;;;;24.16;47.51;102571.34;4726060;30;20596;-83
2022/07/12 07:22:39;;;;;;;1.20;1.13;;;;;;;24.14;47.48;102568.84;4723500;30;20057;-84
2022/07/12 07:25:06;;;;;;;1.55;1.45;;;;;;;24.14;47.96;102571.50;4725962;30;20059;-84
2022/07/12 07:27:32;;;;;;;1.20;1.10;;;;;;;24.09;47.83;102573.84;4738914;30;20056;-83
2022/07/12 07:32:41;;;;;;;1.90;1.30;;;;;;;24.26;47.69;102566.69;4723550;30;20056;-84
2022/07/12 07:35:07;;;;;;;1.50;1.40;;;;;;;24.24;47.37;102563.38;4725977;30;20099;-84
2022/07/12 07:37:34;;;;;;;1.33;1.23;;;;;;;24.28;47.35;102565.53;4711691;30;20045;-83
2022/07/12 07:39:59;;;;;;;1.80;1.40;;;;;;;24.29;47.17;102553.91;4728944;30;20038;-84
2022/07/12 07:42:24;;;;;;;1.50;1.40;;;;;;;24.33;47.45;102557.88;4726788;30;20048;-84
2022/07/12 07:44:50;;;;;;;1.02;0.93;;;;;;;24.33;47.32;102567.72;4729403;30;20496;-83
2022/07/12 07:47:15;;;;;;;1.45;1.35;;;;;;;24.30;47.62;102552.06;4718253;30;20386;-84
2022/07/12 07:49:41;;;;;;;1.70;1.60;;;;;;;24.31;47.72;102553.75;4723009;30;20055;-83
2022/07/12 07:52:06;;;;;;;1.38;1.27;;;;;;;24.32;47.80;102558.06;4726636;30;20492;-82
2022/07/12 07:54:32;;;;;;;1.58;1.33;;;;;;;24.45;47.53;102552.22;4726669;30;20049;-80
2022/07/12 07:56:58;;;;;;;2.20;1.70;;;;;;;24.72;47.28;102551.81;4681633;30;20052;-81
2022/07/12 07:59:23;;;;;;;1.90;1.80;;;;;;;24.66;47.72;102555.16;4723924;30;20041;-86
2022/07/12 08:01:52;;;;;;;2.40;1.65;;;;;;;24.59;48.63;102568.31;4724362;30;20049;-86
2022/07/12 08:04:18;;;;;;;2.08;1.60;;;;;;;24.66;48.90;102560.50;4735548;29;20116;-86
2022/07/12 08:06:45;;;;;;;2.70;2.20;;;;;;;24.85;49.66;102568.09;4720275;30;20118;-82
2022/07/12 08:09:11;;;;;;;3.97;2.40;;;;;;;24.97;48.46;102565.91;4720459;30;20040;-83
2022/07/12 08:11:37;;;;;;;2.78;2.13;;;;;;;24.98;48.46;102557.75;4710345;30;20135;-84
2022/07/12 08:14:06;;;;;;;2.60;2.25;;;;;;;25.12;48.19;102550.88;4711703;30;20053;-82
2022/07/12 08:16:33;;;;;;;3.67;1.98;;;;;;;25.25;47.55;102555.66;4727180;30;20053;-87
2022/07/12 08:18:59;;;;;;;3.85;2.17;;;;;;;25.30;47.57;102553.28;4738679;30;20059;-83
2022/07/12 08:21:25;;;;;;;3.13;2.15;;;;;;;25.38;47.48;102555.91;4731850;30;20053;-85
2022/07/12 08:23:51;;;;;;;3.17;2.30;;;;;;;25.32;47.71;102555.78;4725204;30;20071;-83
2022/07/12 08:26:16;;;;;;;2.10;1.90;;;;;;;25.40;47.80;102551.22;4707481;30;20052;-83
2022/07/12 08:28:42;;;;;;;3.78;2.22;;;;;;;25.33;47.95;102554.78;4684240;30;20040;-83
2022/07/12 08:31:08;;;;;;;4.25;2.20;;;;;;;25.43;47.54;102564.22;4735088;30;20708;-83
2022/07/12 08:33:33;;;;;;;3.33;1.95;;;;;;;25.46;47.83;102558.53;4722649;30;20468;-85
2022/07/12 08:35:59;;;;;;;3.33;2.25;;;;;;;25.42;47.78;102553.72;4722031;30;20048;-83
2022/07/12 08:38:24;;;;;;;2.30;1.90;;;;;;;25.53;47.71;102553.34;4694469;30;20045;-83
2022/07/12 08:40:50;;;;;;;4.00;2.50;;;;;;;25.43;48.52;102558.88;4685831;30;20420;-84
2022/07/12 08:43:15;;;;;;;2.88;1.85;;;;;;;25.50;47.90;102549.19;4709172;30;20041;-83
2022/07/12 08:45:41;;;;;;;3.28;2.25;;;;;;;25.44;48.12;102547.19;4713076;30;20052;-86
2022/07/12 08:48:07;;;;;;;2.58;2.15;;;;;;;25.27;48.35;102538.47;4726223;30;20561;-82
2022/07/12 08:50:34;;;;;;;2.92;2.30;;;;;;;25.38;47.89;102529.25;4716654;30;20068;-82
2022/07/12 08:53:00;;;;;;;2.53;1.88;;;;;;;25.33;47.87;102544.13;4727183;30;20504;-82
2022/07/12 08:55:36;;;;;;;2.20;1.70;;;;;;;25.38;47.79;102533.75;4722494;30;20047;-82
2022/07/12 08:58:06;;;;;;;2.38;2.05;;;;;;;25.41;47.94;102541.41;4720304;30;20496;-82
2022/07/12 09:00:32;;;;;;;3.63;2.65;;;;;;;25.38;48.07;102539.09;4710394;30;20040;-81
2022/07/12 09:03:00;;;;;;;4.82;2.20;;;;;;;25.34;47.95;102537.78;4698617;30;20456;-82
2022/07/12 09:05:30;;;;;;;5.38;2.10;;;;;;;25.45;47.47;102542.69;4724155;30;20123;-82
2022/07/12 09:08:07;;;;;;;3.65;2.15;;;;;;;25.49;47.78;102544.81;4723819;30;20043;-81
2022/07/12 09:10:35;;;;;;;2.30;2.10;;;;;;;25.40;47.90;102539.72;4723534;30;20040;-82
2022/07/12 09:13:01;;;;;;;3.22;2.20;;;;;;;25.50;47.79;102535.84;4722000;30;20024;-82
2022/07/12 09:15:27;;;;;;;2.00;1.80;;;;;;;25.62;47.40;102525.59;4738415;30;20087;-83
2022/07/12 09:17:58;;;;;;;3.00;2.35;;;;;;;25.67;47.73;102530.38;4698163;30;20048;-81
2022/07/12 09:20:29;;;;;;;4.55;2.53;;;;;;;25.64;47.71;102533.41;4726681;30;20044;-83
2022/07/12 09:22:57;;;;;;;5.47;2.38;;;;;;;25.63;48.13;102537.09;4722484;30;20044;-81
2022/07/12 09:25:23;;;;;;;3.65;2.63;;;;;;;25.62;47.85;102538.91;4724200;30;20066;-81
2022/07/12 09:27:57;;;;;;;3.33;2.50;;;;;;;25.54;47.89;102537.16;4721637;30;20048;-81
2022/07/12 09:30:25;;;;;;;3.28;2.35;;;;;;;25.63;48.08;102535.25;4720951;30;20045;-82
2022/07/12 09:36:06;;;;;;;3.05;2.33;;;;;;;25.60;48.11;102536.44;4709857;30;20055;-82
2022/07/12 09:39:00;;;;;;;2.65;2.35;;;;;;;25.60;47.97;102541.75;4722392;30;20044;-81
2022/07/12 09:41:27;;;;;;;7.70;3.20;;;;;;;25.50;48.13;102540.34;4723885;30;20045;-81
2022/07/12 09:43:53;;;;;;;3.75;2.22;;;;;;;25.48;48.51;102534.34;4722122;30;20058;-82
2022/07/12 09:46:19;;;;;;;4.15;2.38;;;;;;;25.38;48.35;102531.09;4722421;30;20112;-84
2022/07/12 09:48:46;;;;;;;2.75;2.25;;;;;;;25.36;48.66;102536.59;4718719;30;20045;-84
2022/07/12 09:51:17;;;;;;;2.65;2.40;;;;;;;25.34;48.27;102525.28;4697543;30;20134;-82
2022/07/12 09:53:44;;;;;;;2.42;2.20;;;;;;;25.50;48.09;102524.34;4706750;30;20056;-81
2022/07/12 09:56:12;;;;;;;2.53;2.33;;;;;;;25.23;48.87;102537.16;4726733;30;20036;-85
2022/07/12 09:58:54;;;;;;;3.28;2.17;;;;;;;25.50;48.06;102537.69;4720953;30;20612;-84
2022/07/12 10:01:20;;;;;;;6.85;2.30;;;;;;;25.64;48.21;102530.75;4717644;30;20036;-86
2022/07/12 10:03:47;;;;;;;5.05;2.50;;;;;;;25.63;47.80;102527.25;4720561;30;20052;-80
2022/07/12 10:06:16;;;;;;;3.70;2.38;;;;;;;25.56;48.00;102527.13;4709506;30;20048;-81
2022/07/12 10:08:42;;;;;;;6.60;2.78;;;;;;;25.30;48.62;102529.28;4709523;30;20144;-82
2022/07/12 10:11:08;;;;;;;3.35;2.20;;;;;;;25.45;48.53;102532.84;4726845;30;20049;-82
2022/07/12 10:13:35;;;;;;;3.58;2.40;;;;;;;25.47;48.38;102538.00;4728201;30;20044;-81
2022/07/12 10:16:02;;;;;;;3.90;2.65;;;;;;;25.65;48.22;102530.56;4727120;30;20052;-82
2022/07/12 10:18:29;;;;;;;3.80;2.50;;;;;;;25.80;47.40;102530.66;4725193;30;20056;-82
2022/07/12 10:20:55;;;;;;;5.20;2.97;;;;;;;25.75;47.97;102541.88;4729403;30;20055;-82
2022/07/12 10:23:33;;;;;;;3.67;2.78;;;;;;;25.67;47.91;102536.53;4692829;30;20152;-84
2022/07/12 10:26:00;;;;;;;5.15;3.03;;;;;;;25.59;48.24;102529.44;4725526;30;20525;-83
2022/07/12 10:28:55;;;;;;;3.20;2.58;;;;;;;25.79;47.80;102524.47;4725213;30;20049;-83
2022/07/12 10:31:26;;;;;;;7.15;2.30;;;;;;;25.73;47.70;102522.53;4727211;30;20457;-82
2022/07/12 10:34:20;;;;;;;2.88;2.20;;;;;;;25.59;48.11;102526.78;4726535;30;20076;-81
2022/07/12 10:36:55;;;;;;;3.85;2.42;;;;;;;25.83;47.78;102527.63;4725472;30;20048;-82
2022/07/12 10:39:22;;;;;;;5.05;2.80;;;;;;;25.90;47.54;102531.25;4702512;30;20041;-82
2022/07/12 10:42:06;;;;;;;2.97;2.60;;;;;;;25.86;47.68;102530.78;4724471;30;20181;-82
2022/07/12 10:44:37;;;;;;;2.80;2.20;;;;;;;25.81;47.41;102521.63;4722191;30;20504;-82
2022/07/12 10:47:04;;;;;;;2.92;2.30;;;;;;;25.66;48.00;102513.53;4723005;30;20037;-81
2022/07/12 10:49:31;;;;;;;2.83;2.50;;;;;;;25.69;48.23;102515.06;4718875;30;20052;-81
2022/07/12 10:52:11;;;;;;;2.42;2.22;;;;;;;25.72;47.53;102510.22;4722623;30;20730;-83
2022/07/12 10:54:38;;;;;;;2.97;2.28;;;;;;;25.83;47.47;102509.78;4708642;30;20100;-82
2022/07/12 10:57:03;;;;;;;6.07;2.10;;;;;;;25.60;48.11;102501.75;4707047;30;20037;-82
2022/07/12 10:59:33;;;;;;;2.90;2.08;;;;;;;25.47;48.55;102506.84;4721136;30;20095;-80
2022/07/12 11:01:59;;;;;;;2.30;2.10;;;;;;;25.66;47.85;102507.38;4720622;30;20051;-81
2022/07/12 11:04:27;;;;;;;2.40;2.20;;;;;;;25.65;48.01;102516.38;4724582;30;20053;-82
2022/07/12 11:06:55;;;;;;;2.30;2.00;;;;;;;25.62;48.41;102514.91;4723383;30;20068;-82
2022/07/12 11:09:21;;;;;;;2.63;2.17;;;;;;;25.72;47.68;102518.22;4722776;30;20041;-81
2022/07/12 11:11:49;;;;;;;4.28;2.10;;;;;;;25.72;47.42;102514.72;4700366;30;20040;-82
2022/07/12 11:14:25;;;;;;;4.30;2.15;;;;;;;25.70;47.78;102514.06;4720653;30;20071;-82
2022/07/12 11:16:52;;;;;;;3.42;2.42;;;;;;;25.70;47.79;102503.41;4719355;30;20060;-82
2022/07/12 11:19:25;;;;;;;2.30;2.10;;;;;;;25.79;47.23;102511.16;4719581;30;20048;-83
2022/07/12 11:21:58;;;;;;;2.92;2.47;;;;;;;25.81;46.98;102508.28;4721756;30;20063;-82
2022/07/12 11:24:27;;;;;;;2.28;2.08;;;;;;;25.63;47.89;102499.72;4717395;30;20048;-85
2022/07/12 11:26:54;;;;;;;3.35;2.20;;;;;;;25.70;47.63;102500.72;4709861;30;20128;-84
2022/07/12 11:29:20;;;;;;;2.05;1.90;;;;;;;25.68;47.73;102495.56;4706869;30;20085;-86
2022/07/12 11:31:46;;;;;;;2.28;2.08;;;;;;;25.72;47.60;102498.72;4716106;30;20064;-85
2022/07/12 11:34:22;;;;;;;2.13;1.92;;;;;;;25.77;47.41;102491.00;4720042;30;20142;-85